createdAt,value
2022-11-01T00:02:03.681Z,100217.53
2022-11-01T00:04:30.824Z,100213.91
2022-11-01T00:06:57.469Z,100211.38
2022-11-01T00:09:24.139Z,100204.94
2022-11-01T00:11:50.878Z,100200.84
2022-11-01T00:14:19.620Z,100200.31
2022-11-01T00:16:46.592Z,100196.97
2022-11-01T00:19:13.514Z,100201.63
2022-11-01T00:21:40.300Z,100201.59
2022-11-01T00:24:07.047Z,100196.88
2022-11-01T00:26:33.892Z,100202.75
2022-11-01T00:29:00.928Z,100195.00
2022-11-01T00:31:27.470Z,100186.00
2022-11-01T00:33:54.064Z,100186.81
2022-11-01T00:36:20.697Z,100186.75
2022-11-01T00:38:53.539Z,100194.06
2022-11-01T00:41:23.388Z,100184.25
2022-11-01T00:43:49.927Z,100181.16
2022-11-01T00:46:17.059Z,100179.75
2022-11-01T00:48:43.593Z,100173.91
2022-11-01T00:51:10.370Z,100185.91
2022-11-01T00:53:37.113Z,100171.38
2022-11-01T00:56:05.672Z,100164.06
2022-11-01T00:58:32.326Z,100166.88
2022-11-01T01:00:59.521Z,100161.22
2022-11-01T01:03:26.223Z,100162.25
2022-11-01T01:05:53.983Z,100164.50
2022-11-01T01:08:22.301Z,100154.09
2022-11-01T01:10:49.019Z,100158.56
2022-11-01T01:13:22.245Z,100139.06
2022-11-01T01:15:48.949Z,100131.28
2022-11-01T01:18:16.277Z,100143.84
2022-11-01T01:20:43.515Z,100144.13
2022-11-01T01:23:10.033Z,100136.56
2022-11-01T01:25:40.136Z,100149.41
2022-11-01T01:28:06.758Z,100142.44
2022-11-01T01:30:33.296Z,100146.84
2022-11-01T01:33:00.113Z,100147.13
2022-11-01T01:35:26.725Z,100141.50
2022-11-01T01:37:53.311Z,100139.88
2022-11-01T01:40:19.955Z,100133.44
2022-11-01T01:42:47.344Z,100138.78
2022-11-01T01:45:29.452Z,100128.91
2022-11-01T01:48:02.680Z,100127.75
2022-11-01T01:50:35.288Z,100119.19
2022-11-01T01:53:23.503Z,100124.97
2022-11-01T01:56:14.779Z,100109.78
2022-11-01T01:58:44.067Z,100116.19
2022-11-01T02:01:11.708Z,100112.56
2022-11-01T02:03:39.995Z,100120.94
2022-11-01T02:06:17.172Z,100122.72
2022-11-01T02:08:47.803Z,100122.97
2022-11-01T02:11:16.404Z,100125.16
2022-11-01T02:13:43.223Z,100123.72
2022-11-01T02:16:33.863Z,100129.97
2022-11-01T02:19:28.044Z,100127.66
2022-11-01T02:22:08.004Z,100122.38
2022-11-01T02:25:01.880Z,100110.94
2022-11-01T02:27:42.380Z,100105.59
2022-11-01T02:30:18.173Z,100112.63
2022-11-01T02:32:56.724Z,100112.66
2022-11-01T02:35:46.355Z,100109.34
2022-11-01T02:38:31.274Z,100120.63
2022-11-01T02:41:22.093Z,100118.34
2022-11-01T02:43:54.919Z,100122.59
2022-11-01T02:46:41.509Z,100120.91
2022-11-01T02:49:11.227Z,100116.78
2022-11-01T02:51:39.192Z,100121.00
2022-11-01T02:54:10.603Z,100124.34
2022-11-01T02:56:39.068Z,100117.38
2022-11-01T02:59:08.218Z,100121.22
2022-11-01T03:01:36.309Z,100117.06
2022-11-01T03:04:03.853Z,100112.28
2022-11-01T03:06:46.537Z,100113.09
2022-11-01T03:09:14.495Z,100112.56
2022-11-01T03:11:54.018Z,100118.13
2022-11-01T03:14:34.979Z,100116.13
2022-11-01T03:17:20.297Z,100121.47
2022-11-01T03:19:51.742Z,100118.66
2022-11-01T03:22:30.729Z,100123.09
2022-11-01T03:25:26.889Z,100124.69
2022-11-01T03:27:58.788Z,100126.41
2022-11-01T03:30:26.417Z,100117.72
2022-11-01T03:32:57.771Z,100122.41
2022-11-01T03:35:27.411Z,100119.28
2022-11-01T03:37:58.933Z,100129.72
2022-11-01T03:40:28.776Z,100128.66
2022-11-01T03:43:01.469Z,100127.97
2022-11-01T03:45:32.310Z,100138.50
2022-11-01T03:48:01.231Z,100138.63
2022-11-01T03:50:29.078Z,100139.53
2022-11-01T03:52:55.819Z,100145.84
2022-11-01T03:55:22.827Z,100141.41
2022-11-01T03:57:51.506Z,100145.63
2022-11-01T04:00:21.600Z,100147.47
2022-11-01T04:02:49.948Z,100148.13
2022-11-01T04:05:17.780Z,100163.72
2022-11-01T04:07:45.205Z,100161.16
2022-11-01T04:10:13.642Z,100154.16
2022-11-01T04:12:40.689Z,100161.13
2022-11-01T04:15:26.443Z,100161.69
2022-11-01T04:18:31.573Z,100170.34
2022-11-01T04:20:58.919Z,100173.94
2022-11-01T04:23:25.485Z,100168.38
2022-11-01T04:25:52.258Z,100172.00
2022-11-01T04:28:19.013Z,100180.34
2022-11-01T04:30:45.831Z,100179.66
2022-11-01T04:33:12.424Z,100179.13
2022-11-01T04:35:39.574Z,100172.78
2022-11-01T04:38:06.627Z,100182.63
2022-11-01T04:40:34.290Z,100182.09
2022-11-01T04:43:01.156Z,100186.78
2022-11-01T04:45:28.091Z,100189.63
2022-11-01T04:48:13.725Z,100190.19
2022-11-01T04:50:42.139Z,100200.34
2022-11-01T04:53:09.859Z,100190.56
2022-11-01T04:55:36.725Z,100196.03
2022-11-01T04:58:04.504Z,100209.47
2022-11-01T05:00:33.146Z,100203.81
2022-11-01T05:03:02.593Z,100204.63
2022-11-01T05:05:30.161Z,100203.25
2022-11-01T05:08:04.559Z,100204.94
2022-11-01T05:10:32.602Z,100198.34
2022-11-01T05:12:59.469Z,100205.28
2022-11-01T05:15:26.462Z,100211.50
2022-11-01T05:17:53.087Z,100204.84
2022-11-01T05:20:20.269Z,100213.06
2022-11-01T05:22:47.069Z,100222.66
2022-11-01T05:25:13.641Z,100224.75
2022-11-01T05:27:40.312Z,100229.59
2022-11-01T05:30:08.506Z,100214.81
2022-11-01T05:32:38.064Z,100221.28
2022-11-01T05:35:06.190Z,100235.47
2022-11-01T05:37:33.051Z,100239.75
2022-11-01T05:39:59.676Z,100238.13
2022-11-01T05:42:26.410Z,100246.47
2022-11-01T05:44:53.029Z,100254.78
2022-11-01T05:47:20.526Z,100257.16
2022-11-01T05:49:47.098Z,100262.38
2022-11-01T05:52:13.641Z,100265.25
2022-11-01T05:54:40.134Z,100269.81
2022-11-01T05:57:06.751Z,100270.69
2022-11-01T05:59:33.277Z,100266.94
2022-11-01T06:02:00.151Z,100275.53
2022-11-01T06:04:27.268Z,100287.56
2022-11-01T06:06:53.846Z,100288.91
2022-11-01T06:09:20.410Z,100292.53
2022-11-01T06:11:46.976Z,100296.00
2022-11-01T06:14:13.796Z,100304.34
2022-11-01T06:16:40.332Z,100315.50
2022-11-01T06:19:06.991Z,100328.75
2022-11-01T06:21:33.524Z,100320.50
2022-11-01T06:24:00.047Z,100329.28
2022-11-01T06:26:26.681Z,100330.94
2022-11-01T06:28:53.361Z,100338.13
2022-11-01T06:31:20.088Z,100343.75
2022-11-01T06:33:49.075Z,100362.66
2022-11-01T06:36:15.675Z,100357.69
2022-11-01T06:38:42.282Z,100365.94
2022-11-01T06:41:08.984Z,100372.41
2022-11-01T06:43:35.625Z,100371.81
2022-11-01T06:46:02.465Z,100370.13
2022-11-01T06:48:29.310Z,100383.41
2022-11-01T06:50:56.060Z,100396.22
2022-11-01T06:53:23.843Z,100397.09
2022-11-01T06:55:52.094Z,100393.50
2022-11-01T06:58:19.122Z,100409.34
2022-11-01T07:00:45.932Z,100414.34
2022-11-01T07:03:14.344Z,100419.28
2022-11-01T07:05:41.658Z,100426.69
2022-11-01T07:08:11.524Z,100418.47
2022-11-01T07:10:41.090Z,100425.94
2022-11-01T07:13:10.650Z,100432.47
2022-11-01T07:15:37.644Z,100443.97
2022-11-01T07:18:06.522Z,100462.72
2022-11-01T07:20:41.908Z,100481.31
2022-11-01T07:23:14.387Z,100483.09
2022-11-01T07:25:41.969Z,100486.88
2022-11-01T07:28:08.978Z,100487.09
2022-11-01T07:30:35.714Z,100501.41
2022-11-01T07:33:04.880Z,100504.91
2022-11-01T07:35:32.584Z,100507.78
2022-11-01T07:38:02.887Z,100519.00
2022-11-01T07:40:31.978Z,100518.63
2022-11-01T07:43:00.311Z,100518.59
2022-11-01T07:45:28.849Z,100522.91
2022-11-01T07:48:04.799Z,100529.53
2022-11-01T07:50:33.659Z,100542.81
2022-11-01T07:53:14.789Z,100539.25
2022-11-01T07:55:42.312Z,100545.59
2022-11-01T07:58:09.577Z,100543.19
2022-11-01T08:00:37.517Z,100552.03
2022-11-01T08:03:07.349Z,100557.88
2022-11-01T08:05:34.604Z,100554.78
2022-11-01T08:08:02.218Z,100558.16
2022-11-01T08:10:29.841Z,100568.06
2022-11-01T08:13:24.750Z,100572.31
2022-11-01T08:15:53.176Z,100563.59
2022-11-01T08:18:22.626Z,100573.88
2022-11-01T08:20:49.449Z,100577.94
2022-11-01T08:23:16.769Z,100582.81
2022-11-01T08:25:44.580Z,100592.69
2022-11-01T08:28:13.652Z,100599.97
2022-11-01T08:30:41.773Z,100590.88
2022-11-01T08:33:08.682Z,100594.13
2022-11-01T08:35:35.625Z,100599.50
2022-11-01T08:38:03.771Z,100597.66
2022-11-01T08:40:31.741Z,100602.16
2022-11-01T08:42:58.789Z,100602.28
2022-11-01T08:45:26.654Z,100610.78
2022-11-01T08:48:01.088Z,100610.13
2022-11-01T08:50:27.796Z,100616.19
2022-11-01T08:52:54.500Z,100620.63
2022-11-01T08:55:21.744Z,100620.84
2022-11-01T08:57:48.930Z,100628.38
2022-11-01T09:00:16.769Z,100637.00
2022-11-01T09:02:43.334Z,100632.63
2022-11-01T09:05:10.315Z,100641.63
2022-11-01T09:07:37.739Z,100637.00
2022-11-01T09:10:06.188Z,100642.16
2022-11-01T09:12:33.467Z,100643.94
2022-11-01T09:15:00.174Z,100654.91
2022-11-01T09:17:26.834Z,100650.78
2022-11-01T09:19:53.360Z,100651.97
2022-11-01T09:22:20.058Z,100652.94
2022-11-01T09:24:46.592Z,100651.09
2022-11-01T09:27:13.368Z,100662.69
2022-11-01T09:29:40.248Z,100660.81
2022-11-01T09:32:07.036Z,100661.34
2022-11-01T09:34:34.330Z,100660.84
2022-11-01T09:37:01.646Z,100665.56
2022-11-01T09:39:28.264Z,100674.28
2022-11-01T09:41:59.891Z,100671.78
2022-11-01T09:44:29.827Z,100682.69
2022-11-01T09:47:20.953Z,100693.06
2022-11-01T09:49:51.826Z,100677.81
2022-11-01T09:52:22.317Z,100681.38
2022-11-01T09:54:49.736Z,100691.38
2022-11-01T09:57:28.845Z,100703.44
2022-11-01T10:00:06.264Z,100699.84
2022-11-01T10:03:01.729Z,100703.75
2022-11-01T10:05:51.287Z,100709.75
2022-11-01T10:08:24.175Z,100712.63
2022-11-01T10:11:19.267Z,100716.63
2022-11-01T10:14:04.627Z,100709.91
2022-11-01T10:16:41.858Z,100711.22
2022-11-01T10:19:15.079Z,100704.88
2022-11-01T10:21:48.153Z,100702.16
2022-11-01T10:24:18.185Z,100700.72
2022-11-01T10:26:47.102Z,100703.69
2022-11-01T10:29:27.949Z,100694.88
2022-11-01T10:31:55.339Z,100695.47
2022-11-01T10:34:35.700Z,100690.44
2022-11-01T10:37:26.744Z,100695.06
2022-11-01T10:40:06.365Z,100692.09
2022-11-01T10:42:36.587Z,100687.16
2022-11-01T10:45:07.465Z,100705.94
2022-11-01T10:47:34.727Z,100702.69
2022-11-01T10:50:12.452Z,100700.50
2022-11-01T10:52:46.329Z,100693.09
2022-11-01T10:55:19.432Z,100699.28
2022-11-01T10:57:55.669Z,100696.06
2022-11-01T11:00:23.568Z,100688.81
2022-11-01T11:02:59.606Z,100695.81
2022-11-01T11:05:29.488Z,100698.50
2022-11-01T11:07:57.496Z,100705.53
2022-11-01T11:10:29.262Z,100704.91
2022-11-01T11:13:05.418Z,100703.81
2022-11-01T11:15:42.548Z,100706.22
2022-11-01T11:18:20.796Z,100700.19
2022-11-01T11:20:51.218Z,100698.34
2022-11-01T11:23:24.254Z,100699.72
2022-11-01T11:25:51.159Z,100713.13
2022-11-01T11:28:30.360Z,100714.47
2022-11-01T11:31:10.989Z,100716.66
2022-11-01T11:33:37.757Z,100729.16
2022-11-01T11:36:05.698Z,100724.09
2022-11-01T11:38:43.599Z,100724.97
2022-11-01T11:41:12.229Z,100734.34
2022-11-01T11:43:41.707Z,100722.84
2022-11-01T11:46:20.706Z,100721.28
2022-11-01T11:49:01.009Z,100726.63
2022-11-01T11:51:29.964Z,100725.91
2022-11-01T11:54:05.634Z,100737.28
2022-11-01T11:56:32.298Z,100734.78
2022-11-01T11:59:08.362Z,100734.50
2022-11-01T12:01:35.706Z,100749.53
2022-11-01T12:04:39.799Z,100745.31
2022-11-01T12:07:08.048Z,100741.34
2022-11-01T12:09:44.846Z,100749.56
2022-11-01T12:12:23.049Z,100746.41
2022-11-01T12:14:49.904Z,100743.97
2022-11-01T12:17:22.880Z,100738.03
2022-11-01T12:19:49.521Z,100735.25
2022-11-01T12:22:16.569Z,100736.09
2022-11-01T12:24:49.269Z,100741.53
2022-11-01T12:27:20.089Z,100742.63
2022-11-01T12:29:56.276Z,100727.84
2022-11-01T12:32:54.674Z,100737.28
2022-11-01T12:35:41.107Z,100744.97
2022-11-01T12:38:29.737Z,100744.69
2022-11-01T12:41:02.468Z,100740.81
2022-11-01T12:43:35.720Z,100744.78
2022-11-01T12:46:11.873Z,100734.41
2022-11-01T12:48:49.866Z,100734.66
2022-11-01T12:51:27.209Z,100740.13
2022-11-01T12:54:06.189Z,100744.44
2022-11-01T12:56:33.040Z,100741.16
2022-11-01T12:59:00.034Z,100742.28
2022-11-01T13:01:58.998Z,100755.81
2022-11-01T13:04:34.080Z,100750.03
2022-11-01T13:07:25.779Z,100747.75
2022-11-01T13:10:08.113Z,100741.81
2022-11-01T13:12:42.047Z,100745.78
2022-11-01T13:15:32.314Z,100759.84
2022-11-01T13:18:23.583Z,100749.69
2022-11-01T13:20:59.191Z,100754.75
2022-11-01T13:23:53.044Z,100751.47
2022-11-01T13:26:30.442Z,100741.34
2022-11-01T13:29:03.425Z,100749.31
2022-11-01T13:31:46.854Z,100750.41
2022-11-01T13:34:33.463Z,100748.72
2022-11-01T13:37:13.496Z,100742.34
2022-11-01T13:39:52.574Z,100762.31
2022-11-01T13:42:24.332Z,100748.63
2022-11-01T13:45:13.427Z,100753.25
2022-11-01T13:48:02.040Z,100743.31
2022-11-01T13:50:51.834Z,100739.81
2022-11-01T13:53:28.171Z,100746.00
2022-11-01T13:56:03.711Z,100749.03
2022-11-01T13:58:32.647Z,100742.34
2022-11-01T14:01:30.514Z,100737.00
2022-11-01T14:04:19.136Z,100753.09
2022-11-01T14:07:05.887Z,100742.06
2022-11-01T14:09:32.792Z,100740.59
2022-11-01T14:12:05.161Z,100734.34
2022-11-01T14:14:31.741Z,100727.66
2022-11-01T14:17:19.535Z,100739.31
2022-11-01T14:20:14.248Z,100733.09
2022-11-01T14:22:44.924Z,100727.94
2022-11-01T14:25:12.263Z,100728.91
2022-11-01T14:27:48.794Z,100728.81
2022-11-01T14:30:21.048Z,100721.88
2022-11-01T14:32:54.879Z,100727.72
2022-11-01T14:35:26.927Z,100734.72
2022-11-01T14:37:57.137Z,100729.56
2022-11-01T14:40:35.476Z,100721.88
2022-11-01T14:43:16.713Z,100736.56
2022-11-01T14:45:52.406Z,100731.81
2022-11-01T14:48:27.540Z,100734.28
2022-11-01T14:50:58.624Z,100733.44
2022-11-01T14:53:32.768Z,100735.44
2022-11-01T14:56:18.192Z,100743.03
2022-11-01T14:58:45.794Z,100743.13
2022-11-01T15:01:23.424Z,100743.63
2022-11-01T15:04:01.089Z,100747.31
2022-11-01T15:06:30.989Z,100756.25
2022-11-01T15:08:59.600Z,100757.13
2022-11-01T15:11:29.183Z,100752.75
2022-11-01T15:13:57.138Z,100749.13
2022-11-01T15:16:26.770Z,100759.75
2022-11-01T15:18:59.465Z,100753.50
2022-11-01T15:21:30.771Z,100760.50
2022-11-01T15:23:59.219Z,100759.41
2022-11-01T15:26:32.741Z,100742.59
2022-11-01T15:29:03.152Z,100739.47
2022-11-01T15:31:30.964Z,100742.47
2022-11-01T15:34:06.204Z,100750.94
2022-11-01T15:36:37.229Z,100749.50
2022-11-01T15:39:17.337Z,100749.88
2022-11-01T15:41:43.972Z,100744.16
2022-11-01T15:44:25.464Z,100752.88
2022-11-01T15:46:57.085Z,100747.06
2022-11-01T15:49:32.518Z,100745.00
2022-11-01T15:52:05.920Z,100747.78
2022-11-01T15:55:01.073Z,100748.03
2022-11-01T15:57:41.278Z,100744.41
2022-11-01T16:00:20.719Z,100745.00
2022-11-01T16:03:15.112Z,100737.59
2022-11-01T16:05:47.152Z,100740.72
2022-11-01T16:08:33.278Z,100740.41
2022-11-01T16:11:00.341Z,100736.41
2022-11-01T16:13:27.301Z,100741.97
2022-11-01T16:16:12.336Z,100733.88
2022-11-01T16:18:41.557Z,100742.13
2022-11-01T16:21:20.481Z,100740.91
2022-11-01T16:23:56.981Z,100739.81
2022-11-01T16:26:23.615Z,100739.44
2022-11-01T16:28:51.759Z,100737.38
2022-11-01T16:31:29.486Z,100747.91
2022-11-01T16:33:57.130Z,100743.81
2022-11-01T16:36:36.313Z,100749.03
2022-11-01T16:39:25.044Z,100747.94
2022-11-01T16:41:52.617Z,100753.72
2022-11-01T16:44:20.236Z,100750.94
2022-11-01T16:46:47.383Z,100761.97
2022-11-01T16:49:13.966Z,100761.06
2022-11-01T16:51:41.119Z,100760.22
2022-11-01T16:54:09.365Z,100760.84
2022-11-01T16:56:49.993Z,100758.28
2022-11-01T16:59:32.085Z,100760.16
2022-11-01T17:02:01.127Z,100766.16
2022-11-01T17:04:28.641Z,100764.31
2022-11-01T17:06:57.913Z,100765.16
2022-11-01T17:09:24.772Z,100774.34
2022-11-01T17:11:53.593Z,100766.03
2022-11-01T17:14:21.555Z,100768.19
2022-11-01T17:16:50.826Z,100780.66
2022-11-01T17:19:31.162Z,100780.28
2022-11-01T17:22:02.196Z,100773.88
2022-11-01T17:24:30.910Z,100780.13
2022-11-01T17:27:00.423Z,100781.34
2022-11-01T17:29:27.156Z,100786.69
2022-11-01T17:31:53.778Z,100780.22
2022-11-01T17:34:20.446Z,100791.00
2022-11-01T17:36:49.078Z,100788.16
2022-11-01T17:39:16.788Z,100785.75
2022-11-01T17:41:43.538Z,100786.25
2022-11-01T17:44:13.375Z,100787.53
2022-11-01T17:46:39.935Z,100788.91
2022-11-01T17:49:06.448Z,100787.06
2022-11-01T17:51:33.583Z,100787.84
2022-11-01T17:54:00.194Z,100783.09
2022-11-01T17:56:26.785Z,100785.84
2022-11-01T17:58:53.707Z,100787.25
2022-11-01T18:01:21.724Z,100786.66
2022-11-01T18:03:48.912Z,100787.50
2022-11-01T18:06:16.200Z,100797.91
2022-11-01T18:08:46.078Z,100791.09
2022-11-01T18:11:32.031Z,100779.75
2022-11-01T18:14:20.653Z,100782.25
2022-11-01T18:17:16.353Z,100780.97
2022-11-01T18:20:25.329Z,100773.72
2022-11-01T18:23:00.338Z,100774.41
2022-11-01T18:25:44.833Z,100776.81
2022-11-01T18:28:22.948Z,100775.03
2022-11-01T18:30:55.517Z,100778.19
2022-11-01T18:33:34.972Z,100789.50
2022-11-01T18:36:08.152Z,100788.56
2022-11-01T18:39:08.909Z,100783.94
2022-11-01T18:41:35.552Z,100784.13
2022-11-01T18:44:03.737Z,100796.63
2022-11-01T18:46:53.777Z,100789.50
2022-11-01T18:49:25.168Z,100793.72
2022-11-01T18:51:51.732Z,100789.69
2022-11-01T18:54:28.695Z,100786.78
2022-11-01T18:57:16.108Z,100785.31
2022-11-01T18:59:44.178Z,100790.41
2022-11-01T19:02:10.747Z,100787.88
2022-11-01T19:04:40.914Z,100786.03
2022-11-01T19:07:17.577Z,100799.00
2022-11-01T19:09:59.106Z,100790.31
2022-11-01T19:12:40.569Z,100785.16
2022-11-01T19:15:13.628Z,100785.84
2022-11-01T19:17:43.364Z,100792.44
2022-11-01T19:20:22.537Z,100789.22
2022-11-01T19:22:49.389Z,100793.19
2022-11-01T19:25:22.071Z,100793.19
2022-11-01T19:27:52.104Z,100794.69
2022-11-01T19:30:26.243Z,100796.22
2022-11-01T19:32:55.366Z,100790.09
2022-11-01T19:35:25.238Z,100785.47
2022-11-01T19:37:54.918Z,100781.66
2022-11-01T19:40:28.278Z,100777.31
2022-11-01T19:42:57.294Z,100770.69
2022-11-01T19:45:33.248Z,100772.53
2022-11-01T19:48:02.245Z,100782.94
2022-11-01T19:50:45.538Z,100776.97
2022-11-01T19:53:33.683Z,100776.31
2022-11-01T19:56:12.474Z,100776.47
2022-11-01T19:58:53.509Z,100772.72
2022-11-01T20:01:42.155Z,100776.97
2022-11-01T20:04:29.609Z,100769.84
2022-11-01T20:07:01.758Z,100784.41
2022-11-01T20:09:36.538Z,100773.19
2022-11-01T20:12:03.295Z,100773.81
2022-11-01T20:14:30.308Z,100775.97
2022-11-01T20:16:56.886Z,100775.84
2022-11-01T20:19:23.380Z,100779.47
2022-11-01T20:21:49.890Z,100771.84
2022-11-01T20:24:16.891Z,100775.59
2022-11-01T20:26:43.598Z,100778.16
2022-11-01T20:29:10.614Z,100776.59
2022-11-01T20:31:37.330Z,100771.63
2022-11-01T20:34:04.268Z,100774.00
2022-11-01T20:36:31.014Z,100778.38
2022-11-01T20:38:57.734Z,100773.53
2022-11-01T20:41:24.455Z,100766.72
2022-11-01T20:43:51.020Z,100775.84
2022-11-01T20:46:17.851Z,100773.38
2022-11-01T20:48:45.323Z,100773.59
2022-11-01T20:51:13.008Z,100773.16
2022-11-01T20:53:39.616Z,100771.44
2022-11-01T20:56:06.846Z,100782.47
2022-11-01T20:58:40.087Z,100774.13
2022-11-01T21:01:14.103Z,100773.34
2022-11-01T21:03:40.740Z,100766.72
2022-11-01T21:06:13.550Z,100765.50
2022-11-01T21:08:42.954Z,100774.84
2022-11-01T21:11:21.649Z,100769.34
2022-11-01T21:13:50.815Z,100771.97
2022-11-01T21:16:25.389Z,100758.56
2022-11-01T21:19:00.498Z,100777.63
2022-11-01T21:21:34.852Z,100771.00
2022-11-01T21:24:22.380Z,100772.09
2022-11-01T21:26:54.870Z,100764.81
2022-11-01T21:29:26.599Z,100761.66
2022-11-01T21:31:53.196Z,100756.31
2022-11-01T21:34:25.388Z,100771.06
2022-11-01T21:36:52.403Z,100771.97
2022-11-01T21:39:25.310Z,100752.47
2022-11-01T21:41:54.107Z,100765.34
2022-11-01T21:44:40.033Z,100764.41
2022-11-01T21:47:07.481Z,100763.03
2022-11-01T21:49:34.995Z,100768.72
2022-11-01T21:52:04.777Z,100759.31
2022-11-01T21:54:36.853Z,100758.94
2022-11-01T21:57:05.563Z,100762.88
2022-11-01T21:59:32.724Z,100759.78
2022-11-01T22:02:03.234Z,100745.59
2022-11-01T22:04:31.393Z,100750.78
2022-11-01T22:06:59.568Z,100751.16
2022-11-01T22:09:26.710Z,100749.84
2022-11-01T22:11:53.892Z,100743.44
2022-11-01T22:14:21.009Z,100753.31
2022-11-01T22:16:47.585Z,100751.22
2022-11-01T22:19:14.365Z,100754.91
2022-11-01T22:21:41.745Z,100739.66
2022-11-01T22:24:08.717Z,100731.63
2022-11-01T22:26:35.274Z,100733.66
2022-11-01T22:29:01.972Z,100725.91
2022-11-01T22:31:29.116Z,100734.16
2022-11-01T22:33:56.774Z,100717.66
2022-11-01T22:36:31.474Z,100725.06
2022-11-01T22:38:59.790Z,100723.38
2022-11-01T22:41:32.715Z,100731.09
2022-11-01T22:44:13.523Z,100730.50
2022-11-01T22:46:56.831Z,100731.09
2022-11-01T22:49:50.179Z,100728.03
2022-11-01T22:52:39.054Z,100720.28
2022-11-01T22:55:11.755Z,100717.16
2022-11-01T22:57:57.271Z,100721.69
2022-11-01T23:00:38.907Z,100708.69
2022-11-01T23:03:19.406Z,100718.94
2022-11-01T23:05:49.805Z,100707.81
2022-11-01T23:08:24.663Z,100724.16
2022-11-01T23:10:52.235Z,100722.50
2022-11-01T23:13:40.997Z,100718.09
2022-11-01T23:16:28.910Z,100712.56
2022-11-01T23:18:59.773Z,100702.38
2022-11-01T23:21:27.149Z,100716.16
2022-11-01T23:23:54.242Z,100704.38
2022-11-01T23:26:23.188Z,100695.44
2022-11-01T23:28:53.053Z,100694.69
2022-11-01T23:31:21.098Z,100691.94
2022-11-01T23:33:49.524Z,100685.19
2022-11-01T23:36:26.467Z,100679.75
2022-11-01T23:38:56.487Z,100682.84
2022-11-01T23:41:32.404Z,100694.69
2022-11-01T23:44:01.813Z,100686.00
2022-11-01T23:46:28.521Z,100684.97
2022-11-01T23:49:09.514Z,100678.84
2022-11-01T23:51:36.616Z,100680.00
2022-11-01T23:54:03.464Z,100675.81
2022-11-01T23:56:30.880Z,100682.81
2022-11-01T23:59:04.199Z,100683.19
